RAIN

Not for real navigation. The accuracy of this data is not assured See disclaimer for more information



ICAO NAME COUNTRY WIND Kt GUST Kt VIS m TEMP/DEW C BARO METAR
KMCD Macinac Island, Mackinac Islan MI United States 5 0 400 17/17 29.85 KMCD 181235Z AUTO 26005KT 0.25SM RA OVC002 17/17 A2985 RMK AO2 T01730173
KGLS SCHOLES FIELD TX United States 16 0 1200 24/24 29.95 KGLS 181240Z 18016KT 0.75SM +RA BR FEW011 BKN027 OVC046 24/24 A2995 RMK AO2 RAE12B17 P0021 T02440239
CYAM Sault Ste Marie, Ont. Canada 3 0 1200 17/17 29.82 CYAM 181231Z 28003KT 0.75SM R12/6000FT/U -SHRA BR SCT002 OVC015 17/17 A2982 RMK FG4ST1SC4 ST TR VIS
KAPA DENVER CENTENNIAL AIRPORT CO United States 0 0 1200 13/13 30.11 KAPA 181153Z 00000KT 0.75SM BR OVC005 13/13 A3011 RMK AO2 TWR VIS 1 3/4 RAB1056E19 SLP153 P0001 6000
KLBX BRAZORIA COUNTY AIRPORT TX United States 6 0 1600 25/23 29.91 KLBX 181238Z AUTO 09006KT 1 0.75SM +RA BR FEW023 BKN033 BKN043 25/23 A2991 RMK AO2 RAB28 P0006 T0250

Show more